Time;durP1;ratioP1;P1;durP2;ratioP2;P2;SDS_P1;SDS_P2;PMS_P1;PMS_P2;Temp;Humidity;BMP_temperature;BMP_pressure;BME280_temperature;BME280_humidity;BME280_pressure;Samples;Min_cycle;Max_cycle;Signal;HPM_P1;HPM_P2
2021/10/03 00:02:15;;;;;;;5.17;3.93;;;7.40;99.90;;;7.92;100.00;94552.00;2293374;55;26576;-55
2021/10/03 00:05:03;;;;;;;5.33;3.70;;;7.40;99.90;;;7.89;100.00;94556.00;2245645;55;26123;-56
2021/10/03 00:07:52;;;;;;;5.70;3.77;;;7.40;99.90;;;8.12;100.00;94549.00;2465466;55;26148;-55
2021/10/03 00:13:36;;;;;;;6.40;4.20;;;7.30;99.90;;;7.89;100.00;94535.00;2244983;56;33730;-56
2021/10/03 00:16:22;;;;;;;5.97;4.70;;;7.30;99.90;;;7.75;100.00;94549.00;2458320;56;26151;-56
2021/10/03 00:19:09;;;;;;;4.53;3.77;;;7.20;99.90;;;7.58;100.00;94552.00;2230693;56;26171;-56
2021/10/03 00:21:57;;;;;;;5.40;4.10;;;7.10;99.90;;;7.56;100.00;94544.00;2434410;55;26140;-56
2021/10/03 00:24:43;;;;;;;4.97;4.10;;;7.00;99.90;;;7.48;100.00;94554.00;2237065;56;26117;-56
2021/10/03 00:27:29;;;;;;;5.07;3.90;;;7.00;99.90;;;7.52;100.00;94556.00;2452886;55;26168;-56
2021/10/03 00:30:17;;;;;;;5.27;3.93;;;7.00;99.90;;;7.55;100.00;94550.00;2265960;55;26227;-56
2021/10/03 00:33:04;;;;;;;4.63;4.10;;;7.00;99.90;;;7.43;100.00;94544.00;2266433;55;26156;-56
2021/10/03 00:35:51;;;;;;;4.13;3.70;;;6.90;99.90;;;7.44;100.00;94548.00;2495469;55;26173;-56
2021/10/03 00:38:37;;;;;;;5.40;3.60;;;6.90;99.90;;;7.28;100.00;94548.00;2266658;55;26096;-55
2021/10/03 00:41:24;;;;;;;5.30;3.87;;;6.80;99.90;;;7.30;100.00;94545.00;2495937;55;26630;-56
2021/10/03 00:44:10;;;;;;;9.20;4.17;;;6.80;99.90;;;7.21;100.00;94543.00;2265976;55;26083;-56
2021/10/03 00:46:57;;;;;;;5.50;4.10;;;6.80;99.90;;;7.18;100.00;94551.00;2495423;55;26152;-56
2021/10/03 00:49:45;;;;;;;4.63;3.50;;;6.70;99.90;;;7.07;100.00;94533.00;2266882;55;26151;-55
2021/10/03 00:52:31;;;;;;;6.93;3.83;;;6.60;99.90;;;7.11;100.00;94535.00;2495312;55;26602;-56
2021/10/03 00:55:20;;;;;;;5.13;3.80;;;6.70;99.90;;;7.19;100.00;94529.00;2245105;56;26095;-56
2021/10/03 00:58:07;;;;;;;4.83;4.27;;;6.60;99.90;;;7.19;100.00;94537.00;2465286;55;26126;-55
2021/10/03 01:00:54;;;;;;;6.47;4.37;;;6.70;99.90;;;7.15;100.00;94525.00;2265582;56;26201;-56
2021/10/03 01:03:41;;;;;;;5.83;3.73;;;6.60;99.90;;;7.03;100.00;94531.00;2235381;56;26637;-55
2021/10/03 01:06:27;;;;;;;4.53;3.93;;;6.60;99.90;;;7.11;100.00;94524.00;2434990;55;26117;-55
2021/10/03 01:09:14;;;;;;;5.90;3.83;;;6.60;99.90;;;7.03;100.00;94529.00;2216073;56;26693;-55
2021/10/03 01:12:01;;;;;;;6.07;4.10;;;6.50;99.90;;;6.98;100.00;94519.00;2434782;57;26274;-56
2021/10/03 01:14:48;;;;;;;6.27;4.13;;;6.50;99.90;;;7.04;100.00;94508.00;2216194;57;26191;-55
2021/10/03 01:17:34;;;;;;;4.67;4.10;;;6.50;99.90;;;6.98;100.00;94511.00;2464600;55;26717;-56
2021/10/03 01:23:20;;;;;;;5.07;4.23;;;6.60;99.90;;;7.27;100.00;94488.00;2233780;56;34051;-56
2021/10/03 01:26:07;;;;;;;4.57;4.10;;;6.50;99.90;;;7.12;100.00;94507.00;2245170;56;26102;-56
2021/10/03 01:28:53;;;;;;;6.23;4.47;;;6.50;99.90;;;7.00;100.00;94503.00;2426285;55;26719;-56
2021/10/03 01:31:40;;;;;;;4.63;3.77;;;6.50;99.90;;;6.92;100.00;94504.00;2187538;57;26251;-55
2021/10/03 01:34:26;;;;;;;4.40;4.00;;;6.50;99.90;;;6.89;100.00;94499.00;2437503;56;26122;-56
2021/10/03 01:40:13;;;;;;;8.00;4.40;;;6.50;99.90;;;7.05;100.00;94480.00;2270176;55;33752;-56
2021/10/03 01:42:59;;;;;;;4.67;4.03;;;6.50;99.90;;;6.92;100.00;94498.00;2494018;55;26107;-55
2021/10/03 01:45:46;;;;;;;6.43;4.10;;;6.50;99.90;;;6.83;100.00;94492.00;2509811;54;27560;-56
2021/10/03 01:48:33;;;;;;;5.10;4.00;;;6.40;99.90;;;6.80;100.00;94497.00;2276146;55;26201;-55
2021/10/03 01:51:19;;;;;;;4.37;3.83;;;6.30;99.90;;;6.77;100.00;94490.00;2509232;55;26425;-56
2021/10/03 01:57:04;;;;;;;5.83;4.40;;;6.40;99.90;;;6.89;100.00;94472.00;2244760;56;33285;-56
2021/10/03 01:59:52;;;;;;;5.83;4.63;;;6.40;99.90;;;6.78;100.00;94490.00;2259411;56;26622;-55
2021/10/03 02:02:38;;;;;;;5.47;4.30;;;6.40;99.90;;;6.76;100.00;94484.00;2488313;55;26257;-56
2021/10/03 02:05:25;;;;;;;7.07;4.47;;;6.40;99.90;;;6.72;100.00;94479.00;2260234;55;26189;-56
2021/10/03 02:08:13;;;;;;;6.37;4.30;;;6.40;99.90;;;6.72;100.00;94480.00;2487745;55;26133;-55
2021/10/03 02:11:01;;;;;;;6.37;4.80;;;6.30;99.90;;;6.67;100.00;94474.00;2260146;55;26129;-56
2021/10/03 02:13:48;;;;;;;4.77;3.90;;;6.30;99.90;;;6.65;100.00;94467.00;2488447;55;26161;-56
2021/10/03 02:16:35;;;;;;;6.67;4.33;;;6.30;99.90;;;6.63;100.00;94459.00;2259897;55;26572;-56
2021/10/03 02:19:21;;;;;;;5.70;3.87;;;6.30;99.90;;;6.60;100.00;94465.00;2487892;55;26138;-56
2021/10/03 02:22:09;;;;;;;6.03;4.20;;;6.30;99.90;;;6.68;100.00;94465.00;2260342;55;26623;-56
2021/10/03 02:24:56;;;;;;;6.10;3.70;;;6.30;99.90;;;6.75;100.00;94472.00;2487771;55;26177;-56
2021/10/03 02:27:43;;;;;;;6.10;4.10;;;6.30;99.90;;;6.76;100.00;94472.00;2258587;56;26591;-55
2021/10/03 02:30:30;;;;;;;5.43;4.00;;;6.30;99.90;;;6.74;100.00;94465.00;2257961;56;26238;-56
2021/10/03 02:33:17;;;;;;;5.33;4.10;;;6.30;99.90;;;6.65;100.00;94468.00;2258603;56;26198;-57
2021/10/03 02:36:05;;;;;;;5.70;3.30;;;6.20;99.90;;;6.59;100.00;94464.00;2487584;55;26603;-56
2021/10/03 02:38:52;;;;;;;4.33;3.43;;;6.30;99.90;;;6.78;100.00;94461.00;2487992;55;26105;-56
2021/10/03 02:41:39;;;;;;;4.40;3.43;;;6.20;99.90;;;6.70;100.00;94468.00;2260214;55;26105;-55
2021/10/03 02:44:25;;;;;;;6.97;3.80;;;6.20;99.90;;;6.61;100.00;94474.00;2488063;55;26206;-56
2021/10/03 02:47:13;;;;;;;4.53;3.83;;;6.20;99.90;;;6.66;100.00;94469.00;2259303;55;26213;-55
2021/10/03 02:52:57;;;;;;;3.83;3.43;;;6.20;99.90;;;6.80;100.00;94435.00;2247908;56;33377;-56
2021/10/03 02:55:44;;;;;;;4.10;3.47;;;6.20;99.90;;;6.59;100.00;94456.00;2235667;54;26126;-56
2021/10/03 02:58:30;;;;;;;3.97;3.50;;;6.10;99.90;;;6.59;100.00;94455.00;2234392;55;26691;-56
2021/10/03 03:01:18;;;;;;;7.07;3.40;;;6.10;99.90;;;6.53;100.00;94458.00;2228633;56;26746;-56
2021/10/03 03:04:04;;;;;;;5.17;3.60;;;6.10;99.90;;;6.55;100.00;94451.00;2249684;55;27169;-56
2021/10/03 03:06:50;;;;;;;3.87;3.30;;;6.10;99.90;;;6.49;100.00;94450.00;2490318;55;26705;-55
2021/10/03 03:09:37;;;;;;;4.43;3.47;;;6.10;99.90;;;6.69;100.00;94443.00;2262066;55;26511;-56
2021/10/03 03:12:23;;;;;;;4.73;3.20;;;6.10;99.90;;;6.62;100.00;94448.00;2490531;55;26185;-56
2021/10/03 03:18:08;;;;;;;4.43;3.60;;;6.10;99.90;;;6.75;100.00;94416.00;2330936;54;33023;-55
2021/10/03 03:20:55;;;;;;;3.80;3.30;;;6.10;99.90;;;6.56;100.00;94438.00;2586804;53;26223;-56
2021/10/03 03:23:42;;;;;;;4.47;3.07;;;6.10;99.90;;;6.60;100.00;94444.00;2587275;53;26138;-56
2021/10/03 03:26:28;;;;;;;4.30;3.50;;;6.10;99.90;;;6.58;100.00;94440.00;2341362;54;26149;-55
2021/10/03 03:29:14;;;;;;;4.90;3.60;;;6.00;99.90;;;6.50;100.00;94438.00;2584482;53;26117;-56
2021/10/03 03:32:02;;;;;;;5.87;3.07;;;6.00;99.90;;;6.43;100.00;94438.00;2339717;54;26531;-56
2021/10/03 03:34:48;;;;;;;3.57;3.27;;;6.00;99.90;;;6.42;100.00;94438.00;2340667;54;26685;-56
2021/10/03 03:37:35;;;;;;;6.17;3.17;;;5.90;99.90;;;6.30;100.00;94431.00;2334751;54;26085;-56
2021/10/03 03:40:23;;;;;;;5.43;3.10;;;5.90;99.90;;;6.40;100.00;94427.00;2330879;54;26193;-56
2021/10/03 03:43:09;;;;;;;3.80;3.23;;;5.90;99.90;;;6.41;100.00;94421.00;2565912;53;26123;-55
2021/10/03 03:45:55;;;;;;;3.43;2.90;;;5.90;99.90;;;6.27;100.00;94422.00;2314408;54;26094;-56
2021/10/03 03:48:42;;;;;;;3.87;3.30;;;5.90;99.90;;;6.43;100.00;94419.00;2554493;53;26236;-56
2021/10/03 03:51:28;;;;;;;7.87;3.70;;;5.90;99.90;;;6.38;100.00;94418.00;2314487;54;26561;-56
2021/10/03 03:54:15;;;;;;;3.93;3.37;;;5.80;99.90;;;6.31;100.00;94415.00;2554093;53;26640;-55
2021/10/03 03:57:01;;;;;;;3.87;3.27;;;5.80;99.90;;;6.33;100.00;94419.00;2314257;54;26225;-56
2021/10/03 03:59:47;;;;;;;5.00;3.20;;;5.80;99.90;;;6.27;100.00;94414.00;2553239;53;26073;-56
2021/10/03 04:02:33;;;;;;;4.33;3.43;;;5.80;99.90;;;6.17;100.00;94419.00;2313409;54;26527;-56
2021/10/03 04:05:20;;;;;;;3.70;3.30;;;5.80;99.90;;;6.23;100.00;94405.00;2312771;55;26557;-56
2021/10/03 04:08:08;;;;;;;3.67;2.93;;;5.70;99.90;;;6.16;100.00;94410.00;2547546;53;26141;-56
2021/10/03 04:10:55;;;;;;;4.90;3.43;;;5.80;99.90;;;6.35;100.00;94416.00;2317760;54;26115;-56
2021/10/03 04:13:42;;;;;;;3.60;2.87;;;5.70;99.90;;;6.16;100.00;94409.00;2316399;54;26156;-56
2021/10/03 04:16:29;;;;;;;4.03;3.10;;;5.70;99.90;;;6.14;100.00;94404.00;2318576;54;26087;-56
2021/10/03 04:19:16;;;;;;;4.23;3.20;;;5.70;99.90;;;6.11;100.00;94405.00;2549204;53;26173;-56
2021/10/03 04:22:02;;;;;;;3.73;3.23;;;5.60;99.90;;;6.15;100.00;94406.00;2309253;55;26626;-56
2021/10/03 04:24:49;;;;;;;3.83;2.80;;;5.60;99.90;;;6.04;100.00;94406.00;2547703;54;26093;-56
2021/10/03 04:27:36;;;;;;;4.33;2.90;;;5.60;99.90;;;6.22;100.00;94409.00;2310061;55;26096;-56
2021/10/03 04:30:22;;;;;;;4.30;3.43;;;5.70;99.90;;;6.25;100.00;94410.00;2546735;54;26140;-57
2021/10/03 04:33:09;;;;;;;4.33;2.93;;;5.70;99.90;;;6.13;100.00;94408.00;2308812;55;26141;-56
2021/10/03 04:35:55;;;;;;;4.27;3.13;;;5.60;99.90;;;6.09;100.00;94412.00;2309372;55;26172;-56
2021/10/03 04:38:42;;;;;;;4.10;3.33;;;5.70;99.90;;;6.30;100.00;94413.00;2546461;54;26781;-55
2021/10/03 04:41:28;;;;;;;3.40;2.80;;;5.60;99.90;;;6.09;100.00;94406.00;2309050;55;26068;-57
2021/10/03 04:44:14;;;;;;;3.40;2.80;;;5.60;99.90;;;6.00;100.00;94409.00;2547619;54;26081;-56
2021/10/03 04:49:58;;;;;;;3.50;2.90;;;5.60;99.90;;;6.09;100.00;94385.00;2243533;56;33384;-56
2021/10/03 04:52:46;;;;;;;6.90;2.77;;;5.50;99.90;;;5.95;100.00;94409.00;2246087;54;26193;-56
2021/10/03 04:55:32;;;;;;;4.23;2.97;;;5.50;99.90;;;5.95;100.00;94406.00;2220486;55;26716;-55
2021/10/03 04:58:18;;;;;;;3.20;2.87;;;5.40;99.90;;;5.83;100.00;94413.00;2239378;54;26155;-56
2021/10/03 05:01:05;;;;;;;3.00;2.70;;;5.40;99.90;;;5.94;100.00;94411.00;2234536;56;26179;-56
2021/10/03 05:03:52;;;;;;;3.07;2.40;;;5.40;99.90;;;5.84;100.00;94409.00;2211043;56;26218;-55
2021/10/03 05:06:38;;;;;;;3.70;2.87;;;5.40;99.90;;;5.86;100.00;94413.00;2210861;56;26174;-55
2021/10/03 05:09:25;;;;;;;4.53;2.73;;;5.30;99.90;;;5.72;100.00;94411.00;2245325;56;26205;-55
2021/10/03 05:12:12;;;;;;;3.00;2.70;;;5.30;99.90;;;5.70;100.00;94405.00;2223443;55;26168;-55
2021/10/03 05:14:59;;;;;;;4.63;3.03;;;5.30;99.90;;;5.86;100.00;94415.00;2214865;56;26156;-55
2021/10/03 05:17:45;;;;;;;6.87;3.07;;;5.40;99.90;;;5.80;100.00;94410.00;2233655;56;26190;-56
2021/10/03 05:20:32;;;;;;;4.00;3.20;;;5.30;99.90;;;5.78;100.00;94412.00;2240127;55;26186;-55
2021/10/03 05:23:19;;;;;;;3.97;3.03;;;5.40;99.90;;;5.74;100.00;94407.00;2240181;55;26741;-55
2021/10/03 05:26:05;;;;;;;3.60;2.70;;;5.40;99.90;;;5.98;100.00;94409.00;2239898;55;26623;-56
2021/10/03 05:28:52;;;;;;;5.73;4.00;;;5.50;99.90;;;6.05;100.00;94404.00;2239851;55;26153;-55
2021/10/03 05:31:38;;;;;;;5.23;3.37;;;5.50;99.90;;;6.03;100.00;94406.00;2240134;55;26156;-55
2021/10/03 05:34:25;;;;;;;4.67;3.23;;;5.60;99.90;;;6.08;100.00;94400.00;2240401;56;26997;-55
2021/10/03 05:37:11;;;;;;;3.97;3.30;;;5.70;99.90;;;6.18;100.00;94397.00;2445801;55;26203;-55
2021/10/03 05:39:58;;;;;;;8.30;3.83;;;5.70;99.90;;;6.26;100.00;94409.00;2439567;56;26531;-55
2021/10/03 05:42:44;;;;;;;4.37;3.07;;;5.80;99.90;;;6.30;100.00;94409.00;2220600;56;26189;-56
2021/10/03 05:45:31;;;;;;;5.50;3.70;;;5.80;99.90;;;6.22;100.00;94416.00;2435435;56;26109;-56
2021/10/03 05:51:15;;;;;;;4.07;3.40;;;5.90;99.90;;;6.51;100.00;94392.00;2245805;56;33401;-56
2021/10/03 05:54:01;;;;;;;4.10;3.17;;;6.10;99.90;;;6.61;100.00;94417.00;2481240;55;26140;-56
2021/10/03 05:56:48;;;;;;;3.63;2.93;;;6.20;99.90;;;6.72;100.00;94408.00;2488551;55;26581;-57
2021/10/03 05:59:34;;;;;;;4.07;2.80;;;6.30;99.90;;;6.87;100.00;94409.00;2262036;56;26132;-57
2021/10/03 06:02:20;;;;;;;2.90;2.67;;;6.30;99.90;;;6.89;100.00;94407.00;2493588;55;26064;-56
2021/10/03 06:05:08;;;;;;;3.50;2.93;;;6.30;99.90;;;6.85;100.00;94398.00;2276220;55;26164;-56
2021/10/03 06:07:54;;;;;;;5.27;3.00;;;6.30;99.90;;;6.78;100.00;94394.00;2505616;55;26090;-56
2021/10/03 06:10:41;;;;;;;3.67;3.00;;;6.40;99.90;;;6.81;100.00;94397.00;2277597;56;26106;-56
2021/10/03 06:13:27;;;;;;;3.43;3.13;;;6.40;99.90;;;6.90;100.00;94391.00;2260461;56;26159;-56
2021/10/03 06:16:13;;;;;;;4.60;3.40;;;6.50;99.90;;;7.04;100.00;94387.00;2488167;55;26195;-56
2021/10/03 06:19:00;;;;;;;4.20;3.10;;;6.60;99.90;;;7.11;100.00;94388.00;2260508;56;26102;-57
2021/10/03 06:21:46;;;;;;;5.90;4.07;;;6.80;99.90;;;7.29;100.00;94389.00;2488584;55;26179;-55
2021/10/03 06:24:33;;;;;;;4.23;3.83;;;7.00;99.90;;;7.53;100.00;94380.00;2260382;56;26110;-56
2021/10/03 06:27:19;;;;;;;5.07;4.17;;;7.20;99.90;;;7.76;100.00;94391.00;2488103;55;26252;-56
2021/10/03 06:33:05;;;;;;;4.60;4.00;;;7.60;99.90;;;8.20;100.00;94360.00;2246938;54;33231;-57
2021/10/03 06:35:52;;;;;;;5.00;4.23;;;7.80;99.90;;;8.32;100.00;94390.00;2489678;55;26600;-57
2021/10/03 06:38:38;;;;;;;4.70;4.00;;;8.00;99.90;;;8.45;100.00;94383.00;2464707;55;26161;-56
2021/10/03 06:41:25;;;;;;;7.10;3.83;;;8.10;99.90;;;8.75;100.00;94386.00;2244489;56;26165;-56
2021/10/03 06:44:11;;;;;;;5.67;4.20;;;8.30;99.90;;;8.94;100.00;94390.00;2475100;55;26162;-57
2021/10/03 06:46:58;;;;;;;8.13;4.03;;;8.60;99.90;;;9.21;100.00;94381.00;2262298;56;26683;-56
2021/10/03 06:49:45;;;;;;;6.20;4.23;;;8.80;99.90;;;9.54;100.00;94387.00;2260814;56;26159;-56
2021/10/03 06:52:31;;;;;;;5.30;3.50;;;9.10;99.90;;;9.95;100.00;94380.00;2490811;55;26103;-56
2021/10/03 06:55:17;;;;;;;3.90;3.50;;;9.50;99.90;;;10.54;100.00;94379.00;2261203;56;26170;-57
2021/10/03 06:58:04;;;;;;;4.17;3.67;;;9.90;99.90;;;11.24;100.00;94375.00;2253152;56;26200;-57
2021/10/03 07:00:51;;;;;;;5.73;3.50;;;10.50;99.90;;;11.93;100.00;94371.00;2235198;55;27132;-55
2021/10/03 07:03:37;;;;;;;5.07;3.10;;;11.10;99.90;;;12.62;100.00;94371.00;2235681;56;26186;-56
2021/10/03 07:06:24;;;;;;;3.40;3.10;;;11.80;99.90;;;13.54;100.00;94361.00;2236533;55;26181;-55
2021/10/03 07:09:10;;;;;;;4.22;2.92;;;12.80;99.90;;;14.84;100.00;94339.00;2240168;56;26197;-57
2021/10/03 07:11:57;;;;;;;2.95;2.37;;;13.80;99.90;;;16.38;100.00;94337.00;2239901;56;26236;-55
2021/10/03 07:14:43;;;;;;;3.47;2.60;;;15.20;99.90;;;17.86;100.00;94336.00;2240502;56;26217;-56
2021/10/03 07:17:29;;;;;;;2.50;2.30;;;16.50;99.90;;;18.87;100.00;94338.00;2454498;55;26178;-55
2021/10/03 07:20:16;;;;;;;2.58;2.25;;;17.30;99.90;;;19.31;100.00;94337.00;2225803;56;26099;-55
2021/10/03 07:23:02;;;;;;;3.35;2.50;;;17.80;99.90;;;19.84;100.00;94325.00;2460316;56;26418;-56
2021/10/03 07:25:49;;;;;;;2.50;2.30;;;18.20;99.90;;;20.36;100.00;94326.00;2237446;56;26458;-56
2021/10/03 07:28:35;;;;;;;2.45;2.25;;;18.30;99.90;;;20.12;100.00;94327.00;2460409;55;26613;-56
2021/10/03 07:31:22;;;;;;;3.58;2.60;;;18.60;99.90;;;20.88;100.00;94329.00;2237348;56;26542;-55
2021/10/03 07:34:08;;;;;;;2.60;2.40;;;19.20;99.90;;;21.79;100.00;94324.00;2460429;55;26154;-56
2021/10/03 07:36:54;;;;;;;4.15;2.55;;;19.80;99.90;;;22.26;100.00;94321.00;2241415;56;26175;-56
2021/10/03 07:39:41;;;;;;;2.50;2.30;;;20.10;99.90;;;22.56;100.00;94322.00;2241389;56;26143;-55
2021/10/03 07:42:27;;;;;;;3.60;2.70;;;20.30;99.90;;;23.08;100.00;94326.00;2464583;55;26107;-56
2021/10/03 07:45:14;;;;;;;3.17;2.83;;;21.00;99.90;;;23.88;100.00;94322.00;2239983;56;26484;-57
2021/10/03 07:48:00;;;;;;;2.83;2.40;;;21.80;99.90;;;24.14;100.00;94320.00;2464215;55;26169;-55
2021/10/03 07:50:47;;;;;;;3.08;2.42;;;21.70;99.90;;;25.01;100.00;94320.00;2240201;56;26239;-56
2021/10/03 07:53:33;;;;;;;2.95;2.65;;;22.50;99.90;;;26.24;100.00;94314.00;2463777;55;26194;-57
2021/10/03 07:56:19;;;;;;;2.40;2.20;;;23.60;99.90;;;27.50;96.54;94315.00;2240200;56;26721;-56
2021/10/03 07:59:06;;;;;;;4.07;2.70;;;24.50;99.90;;;27.77;94.65;94311.00;2463780;55;25148;-56
2021/10/03 08:01:52;;;;;;;2.10;1.90;;;25.20;99.90;;;29.01;88.68;94307.00;2463831;55;25147;-57
2021/10/03 08:04:39;;;;;;;3.50;2.45;;;26.00;99.90;;;29.82;80.90;94315.00;2240299;56;25071;-56
2021/10/03 08:07:25;;;;;;;4.22;2.22;;;26.90;99.90;;;31.18;73.54;94312.00;2464214;55;25087;-56
2021/10/03 08:10:11;;;;;;;2.40;2.20;;;27.20;99.90;;;31.81;64.67;94321.00;2240013;56;25079;-56
2021/10/03 08:12:58;;;;;;;2.53;2.33;;;28.10;99.90;;;32.73;61.15;94325.00;2463909;55;25143;-57
2021/10/03 08:18:41;;;;;;;2.37;2.10;;;28.10;99.90;;;32.00;56.40;94329.00;2243114;55;32367;-55
2021/10/03 08:21:29;;;;;;;2.72;2.33;;;27.60;99.90;;;32.01;56.17;94325.00;2255338;55;25226;-56
2021/10/03 08:24:16;;;;;;;2.80;2.33;;;27.50;99.90;;;31.73;60.41;94332.00;2487231;55;25106;-55
2021/10/03 08:27:02;;;;;;;3.28;2.40;;;27.00;99.90;;;31.08;57.58;94324.00;2240343;56;25105;-55
2021/10/03 08:29:48;;;;;;;2.40;2.10;;;27.40;99.90;;;31.48;57.82;94312.00;2485998;55;25176;-55
2021/10/03 08:32:35;;;;;;;2.42;2.22;;;27.10;99.90;;;31.10;63.17;94311.00;2244950;56;25196;-55
2021/10/03 08:35:22;;;;;;;2.33;2.00;;;27.30;99.90;;;31.68;57.62;94321.00;2241134;56;25164;-55
2021/10/03 08:38:08;;;;;;;2.12;1.92;;;27.70;99.90;;;31.92;54.69;94314.00;2240811;56;25050;-55
2021/10/03 08:40:56;;;;;;;3.80;2.25;;;27.60;99.90;;;30.50;48.68;94317.00;2240741;56;25647;-55
2021/10/03 08:43:42;;;;;;;2.30;2.10;;;27.10;99.90;;;30.26;51.10;94314.00;2465046;55;25049;-54
2021/10/03 08:46:29;;;;;;;2.12;2.03;;;27.60;99.90;;;31.17;48.59;94312.00;2241196;56;25601;-55
2021/10/03 08:49:18;;;;;;;2.08;1.87;;;28.10;99.90;;;32.13;48.71;94317.00;2464544;55;25085;-55
2021/10/03 08:52:06;;;;;;;2.20;2.00;;;28.00;99.90;;;32.07;52.78;94307.00;2240801;56;25069;-54
2021/10/03 08:54:53;;;;;;;2.37;2.17;;;28.00;99.90;;;30.93;45.89;94309.00;2495648;55;25492;-55
2021/10/03 08:57:40;;;;;;;2.47;2.12;;;27.40;99.90;;;29.98;47.46;94308.00;2266960;56;25543;-55
2021/10/03 09:00:27;;;;;;;2.53;2.33;;;27.20;99.90;;;29.75;49.10;94304.00;2496250;55;30133;-55
2021/10/03 09:03:15;;;;;;;2.47;2.20;;;27.20;99.90;;;30.19;46.38;94309.00;2245164;56;25077;-55
2021/10/03 09:06:03;;;;;;;2.40;2.20;;;27.70;99.90;;;30.99;43.80;94300.00;2464376;55;25205;-55
2021/10/03 09:08:53;;;;;;;2.75;2.03;;;27.60;99.90;;;31.07;46.77;94307.00;2240540;56;25612;-55
2021/10/03 09:11:39;;;;;;;3.03;2.10;;;28.30;99.90;;;31.63;42.63;94311.00;2464511;55;25426;-55
2021/10/03 09:14:37;;;;;;;2.53;2.30;;;28.40;99.90;;;31.59;39.71;94305.00;2240436;56;25567;-54
2021/10/03 09:17:24;;;;;;;2.50;1.98;;;28.50;99.90;;;31.69;41.19;94306.00;2257061;56;25072;-56
2021/10/03 09:20:15;;;;;;;2.12;1.92;;;28.60;99.90;;;32.28;45.00;94294.00;2261373;56;25081;-55
2021/10/03 09:26:12;;;;;;;2.05;1.85;;;29.20;99.90;;;33.10;38.55;94298.00;2234193;55;32499;-57
2021/10/03 09:29:18;;;;;;;2.15;2.00;;;29.10;99.90;;;33.00;41.54;94304.00;2243082;56;25144;-57
2021/10/03 09:32:10;;;;;;;2.65;1.95;;;30.20;99.90;;;35.26;38.70;94296.00;2228611;55;25136;-57
2021/10/03 09:35:01;;;;;;;3.22;2.30;;;30.70;99.90;;;34.90;34.72;94297.00;2283381;55;25085;-55
2021/10/03 09:37:48;;;;;;;3.00;1.90;;;30.80;99.90;;;34.82;35.26;94295.00;2516651;55;25105;-55
2021/10/03 09:40:34;;;;;;;3.05;2.20;;;31.10;99.90;;;35.86;31.78;94290.00;2283161;55;25054;-55
2021/10/03 09:43:40;;;;;;;2.30;2.10;;;31.50;99.90;;;35.68;32.39;94300.00;2252934;55;25998;-54
2021/10/03 09:46:42;;;;;;;3.08;2.45;;;31.10;99.90;;;35.00;31.30;94296.00;2287322;55;25541;-56
2021/10/03 09:49:30;;;;;;;2.33;2.00;;;30.50;99.90;;;34.60;33.99;94293.00;2287402;55;25576;-54
2021/10/03 09:52:17;;;;;;;3.75;2.20;;;30.80;99.90;;;34.88;32.15;94280.00;2521158;55;25094;-55
2021/10/03 09:55:09;;;;;;;3.50;2.10;;;31.10;99.90;;;35.24;34.47;94290.00;2287305;55;25555;-56
2021/10/03 09:57:57;;;;;;;2.33;1.92;;;31.50;99.90;;;36.15;33.78;94281.00;2521214;55;25061;-55
2021/10/03 10:00:43;;;;;;;2.10;1.90;;;32.30;99.90;;;36.71;31.42;94286.00;2287062;55;25058;-57
2021/10/03 10:03:29;;;;;;;2.15;1.95;;;31.20;99.90;;;35.20;29.91;94284.00;2492507;55;25121;-57
2021/10/03 10:06:17;;;;;;;2.75;2.10;;;31.30;99.90;;;35.11;31.95;94275.00;2261828;56;25662;-54
2021/10/03 10:09:09;;;;;;;2.05;1.90;;;31.60;99.90;;;35.70;30.15;94280.00;2489719;55;25151;-54
2021/10/03 10:12:05;;;;;;;2.17;1.98;;;31.10;99.90;;;35.49;30.82;94272.00;2261294;56;25068;-54
2021/10/03 10:15:00;;;;;;;2.15;2.05;;;31.60;99.90;;;36.23;29.59;94276.00;2261531;56;25140;-55
2021/10/03 10:17:47;;;;;;;2.35;2.15;;;32.20;99.90;;;36.73;29.49;94260.00;2490095;55;25144;-54
2021/10/03 10:20:36;;;;;;;2.85;1.90;;;32.20;99.90;;;36.52;29.85;94256.00;2261864;56;25063;-55
2021/10/03 10:23:29;;;;;;;3.90;1.95;;;32.00;99.30;;;35.58;27.66;94259.00;2489911;55;25550;-54
2021/10/03 10:26:38;;;;;;;2.55;2.10;;;31.00;99.90;;;34.74;29.50;94260.00;2260396;56;25377;-54
2021/10/03 10:29:53;;;;;;;2.10;1.90;;;31.60;99.90;;;36.02;28.30;94260.00;2261467;56;25530;-55
2021/10/03 10:33:10;;;;;;;2.17;1.95;;;32.30;99.90;;;37.57;32.10;94253.00;2490044;55;25076;-55
2021/10/03 10:39:23;;;;;;;2.40;2.20;;;33.30;99.90;;;38.92;30.56;94253.00;2249433;56;32600;-57
2021/10/03 10:42:25;;;;;;;2.15;1.95;;;33.90;99.40;;;39.74;25.61;94256.00;2245495;56;25132;-57
2021/10/03 10:45:40;;;;;;;2.03;1.83;;;33.40;98.40;;;38.61;25.59;94248.00;2494931;55;25062;-54
2021/10/03 10:48:27;;;;;;;2.30;1.90;;;33.20;98.10;;;37.17;26.52;94238.00;2266527;55;25130;-55
2021/10/03 10:51:22;;;;;;;2.08;1.90;;;33.40;99.90;;;38.47;30.07;94237.00;2495779;55;25066;-54
2021/10/03 10:54:15;;;;;;;3.50;1.80;;;33.00;99.40;;;36.85;28.72;94243.00;2266563;55;25066;-55
2021/10/03 10:57:10;;;;;;;2.10;1.90;;;32.20;98.00;;;35.62;28.10;94235.00;2498208;55;25127;-54
2021/10/03 11:00:18;;;;;;;2.33;2.10;;;32.30;99.70;;;37.23;28.44;94239.00;2269633;55;25651;-54
2021/10/03 11:03:06;;;;;;;3.05;1.98;;;32.50;99.90;;;37.45;30.79;94233.00;2495656;55;25058;-54
2021/10/03 11:05:53;;;;;;;2.22;1.80;;;32.80;98.60;;;37.61;27.11;94241.00;2281683;54;25033;-54
2021/10/03 11:12:10;;;;;;;1.95;1.70;;;32.10;98.10;;;36.02;29.22;94226.00;2237579;56;32467;-57
2021/10/03 11:15:26;;;;;;;2.22;1.92;;;30.80;99.90;;;34.21;32.37;94227.00;2487654;54;25051;-57
2021/10/03 11:18:12;;;;;;;2.08;1.90;;;30.60;99.90;;;34.14;31.60;94228.00;2490744;54;25043;-57
2021/10/03 11:20:58;;;;;;;2.53;1.90;;;31.20;98.30;;;35.67;27.93;94230.00;2262251;55;25532;-57
2021/10/03 11:23:45;;;;;;;4.12;1.70;;;31.10;95.80;;;34.05;27.15;94225.00;2489706;55;25687;-57
2021/10/03 11:26:46;;;;;;;2.28;1.80;;;30.40;98.50;;;32.59;31.51;94221.00;2269175;55;25616;-56
2021/10/03 11:32:38;;;;;;;2.62;2.08;;;29.20;98.70;;;31.24;32.33;94224.00;2268820;56;32335;-57
2021/10/03 11:35:27;;;;;;;2.20;2.00;;;28.60;99.90;;;30.41;36.26;94207.00;2250634;55;25090;-56
2021/10/03 11:38:14;;;;;;;1.65;1.55;;;28.50;99.90;;;30.62;36.32;94222.00;2268790;55;25074;-56
2021/10/03 11:41:07;;;;;;;2.75;2.10;;;29.10;99.20;;;31.35;33.90;94220.00;2260535;55;25085;-57
2021/10/03 11:43:53;;;;;;;2.37;1.83;;;28.90;99.40;;;31.26;34.18;94218.00;2267858;55;25046;-56
2021/10/03 11:46:56;;;;;;;2.00;1.80;;;28.00;98.90;;;29.20;35.84;94224.00;2268065;55;25138;-56
2021/10/03 11:49:46;;;;;;;2.03;1.83;;;27.10;99.90;;;28.12;39.44;94215.00;2268144;55;25149;-57
2021/10/03 11:52:36;;;;;;;2.62;2.00;;;26.50;99.90;;;27.43;40.63;94222.00;2497748;55;25550;-57
2021/10/03 11:55:34;;;;;;;2.20;2.00;;;26.80;99.90;;;28.08;39.91;94220.00;2267367;55;26948;-57
2021/10/03 11:58:22;;;;;;;2.03;1.77;;;27.50;99.90;;;29.19;38.68;94213.00;2267728;55;26118;-57
2021/10/03 12:01:08;;;;;;;1.80;1.67;;;28.30;99.90;;;30.21;41.27;94212.00;2497292;55;25128;-55
2021/10/03 12:03:57;;;;;;;1.80;1.70;;;28.20;99.40;;;29.65;37.36;94214.00;2247962;55;25122;-56
2021/10/03 12:06:43;;;;;;;2.33;2.05;;;28.30;99.90;;;29.56;39.03;94205.00;2242781;56;26585;-55
2021/10/03 12:09:30;;;;;;;1.60;1.50;;;28.50;99.90;;;29.81;39.36;94205.00;2466907;55;25107;-55
2021/10/03 12:12:16;;;;;;;2.97;1.77;;;28.60;99.90;;;30.11;38.06;94196.00;2242326;55;25111;-56
2021/10/03 12:15:03;;;;;;;2.03;1.70;;;28.20;99.90;;;29.25;38.72;94206.00;2466655;55;26564;-55
2021/10/03 12:17:50;;;;;;;2.97;1.73;;;28.10;99.90;;;29.36;40.05;94199.00;2242884;55;25058;-56
2021/10/03 12:24:12;;;;;;;2.00;1.80;;;28.40;99.90;;;29.53;42.31;94203.00;2260481;55;32274;-56
2021/10/03 12:26:58;;;;;;;1.67;1.52;;;27.50;99.90;;;28.25;40.55;94205.00;2209657;56;26180;-56
2021/10/03 12:29:56;;;;;;;2.00;1.80;;;27.30;99.90;;;27.92;42.82;94206.00;2226350;56;26209;-57
2021/10/03 12:33:00;;;;;;;2.50;1.73;;;27.60;99.90;;;28.57;44.10;94203.00;2460227;55;25048;-56
2021/10/03 12:36:02;;;;;;;1.65;1.55;;;27.70;99.90;;;28.43;41.37;94202.00;2237242;56;26152;-56
2021/10/03 12:38:48;;;;;;;1.85;1.75;;;27.70;99.90;;;28.36;44.83;94195.00;2237012;56;26118;-56